createdAt,value
2019-05-10T00:04:00.156Z,96.65
2019-05-10T00:09:06.111Z,97.50
2019-05-10T00:14:32.159Z,97.35
2019-05-10T00:19:37.545Z,97.21
2019-05-10T00:25:02.270Z,96.86
2019-05-10T00:29:56.731Z,94.62
2019-05-10T00:35:03.792Z,93.87
2019-05-10T00:40:09.430Z,92.92
2019-05-10T00:45:15.162Z,92.34
2019-05-10T00:50:22.203Z,92.01
2019-05-10T00:55:28.470Z,91.55
2019-05-10T01:00:34.144Z,91.42
2019-05-10T01:05:40.649Z,91.62
2019-05-10T01:10:45.910Z,91.86
2019-05-10T01:15:51.911Z,91.70
2019-05-10T01:20:58.651Z,91.75
2019-05-10T01:26:04.710Z,91.37
2019-05-10T01:31:12.610Z,90.88
2019-05-10T01:36:18.382Z,90.06
2019-05-10T01:41:24.942Z,90.25
2019-05-10T01:46:35.786Z,89.96
2019-05-10T01:51:41.217Z,90.13
2019-05-10T01:56:47.766Z,90.89
2019-05-10T02:01:53.958Z,91.69
2019-05-10T02:06:59.751Z,92.36
2019-05-10T02:12:05.585Z,92.16
2019-05-10T02:17:11.605Z,91.91
2019-05-10T02:22:17.410Z,91.87
2019-05-10T02:27:23.464Z,91.68
2019-05-10T02:32:31.885Z,91.20
2019-05-10T02:37:37.394Z,91.38
2019-05-10T02:42:43.492Z,90.68
2019-05-10T02:47:49.452Z,90.90
2019-05-10T02:53:01.826Z,90.62
2019-05-10T02:58:08.201Z,90.69
2019-05-10T03:03:19.124Z,90.54
2019-05-10T03:08:25.665Z,90.31
2019-05-10T03:13:31.726Z,90.01
2019-05-10T03:18:38.342Z,90.35
2019-05-10T03:23:44.549Z,90.63
2019-05-10T03:28:50.893Z,91.10
2019-05-10T03:33:58.060Z,90.93
2019-05-10T03:39:04.263Z,90.21
2019-05-10T03:44:11.215Z,90.10
2019-05-10T03:49:16.863Z,90.39
2019-05-10T03:54:22.624Z,90.54
2019-05-10T03:59:34.147Z,90.88
2019-05-10T04:04:40.119Z,91.15
2019-05-10T04:09:49.921Z,91.25
2019-05-10T04:14:56.389Z,91.60
2019-05-10T04:20:02.315Z,91.06
2019-05-10T04:25:09.077Z,91.06
2019-05-10T04:30:16.091Z,90.82
2019-05-10T04:35:21.819Z,90.47
2019-05-10T04:40:28.475Z,90.07
2019-05-10T04:45:35.347Z,89.65
2019-05-10T04:50:41.407Z,89.71
2019-05-10T04:55:47.976Z,88.91
2019-05-10T05:00:53.880Z,89.36
2019-05-10T05:05:59.607Z,89.21
2019-05-10T05:11:06.051Z,89.60
2019-05-10T05:16:12.886Z,89.58
2019-05-10T05:21:18.766Z,89.89
2019-05-10T05:26:24.466Z,89.77
2019-05-10T05:31:36.145Z,90.05
2019-05-10T05:36:41.789Z,89.84
2019-05-10T05:41:51.485Z,89.82
2019-05-10T05:46:55.601Z,90.59
2019-05-10T05:52:01.202Z,90.78
2019-05-10T05:57:10.658Z,91.73
2019-05-10T06:02:16.705Z,91.73
2019-05-10T06:07:22.345Z,91.54
2019-05-10T06:12:33.766Z,91.25
2019-05-10T06:17:40.170Z,90.95
2019-05-10T06:23:05.117Z,90.61
2019-05-10T06:27:56.549Z,91.25
2019-05-10T06:33:12.085Z,93.45
2019-05-10T06:38:09.957Z,93.92
2019-05-10T06:43:18.526Z,94.23
2019-05-10T06:48:27.481Z,95.19
2019-05-10T06:53:31.665Z,94.36
2019-05-10T06:58:38.490Z,94.05
2019-05-10T07:03:45.295Z,93.00
2019-05-10T07:08:51.613Z,92.55
2019-05-10T07:13:59.227Z,91.56
2019-05-10T07:19:09.332Z,90.51
2019-05-10T07:24:18.300Z,91.18
2019-05-10T07:29:30.237Z,91.34
2019-05-10T07:34:36.326Z,90.59
2019-05-10T07:39:42.190Z,89.83
2019-05-10T07:44:48.824Z,88.07
2019-05-10T07:49:56.609Z,87.50
2019-05-10T07:55:02.934Z,85.98
2019-05-10T08:00:09.691Z,87.38
2019-05-10T08:05:18.294Z,85.23
2019-05-10T08:10:29.942Z,85.48
2019-05-10T08:15:38.340Z,85.75
2019-05-10T08:20:53.606Z,85.24
2019-05-10T08:25:55.654Z,85.42
2019-05-10T08:31:02.583Z,83.68
2019-05-10T08:36:08.404Z,84.65
2019-05-10T08:41:18.144Z,84.00
2019-05-10T08:46:29.160Z,84.38
2019-05-10T08:51:34.519Z,84.27
2019-05-10T08:56:44.050Z,84.23
2019-05-10T09:01:50.812Z,86.18
2019-05-10T09:06:59.813Z,87.83
2019-05-10T09:12:09.079Z,88.69
2019-05-10T09:17:14.816Z,88.74
2019-05-10T09:22:25.943Z,87.43
2019-05-10T09:27:29.085Z,87.78
2019-05-10T09:32:39.803Z,88.90
2019-05-10T09:37:47.706Z,89.08
2019-05-10T09:42:52.922Z,89.08
2019-05-10T09:48:03.203Z,89.82
2019-05-10T09:53:12.556Z,91.41
2019-05-10T09:58:22.307Z,92.95
2019-05-10T10:03:29.906Z,95.64
2019-05-10T10:08:34.615Z,91.59
2019-05-10T10:13:44.003Z,88.46
2019-05-10T10:18:50.575Z,86.98
2019-05-10T10:24:00.459Z,88.65
2019-05-10T10:29:07.358Z,89.98
2019-05-10T10:34:13.331Z,79.83
2019-05-10T10:39:22.812Z,80.39
2019-05-10T10:44:27.378Z,77.63
2019-05-10T10:49:33.313Z,79.97
2019-05-10T10:54:39.889Z,80.63
2019-05-10T10:59:47.465Z,75.96
2019-05-10T11:04:53.634Z,78.19
2019-05-10T11:10:08.181Z,73.80
2019-05-10T11:15:07.858Z,74.05
2019-05-10T11:20:14.154Z,75.26
2019-05-10T11:25:21.271Z,72.20
2019-05-10T11:30:26.863Z,69.64
2019-05-10T11:35:34.644Z,72.72
2019-05-10T11:40:41.921Z,74.44
2019-05-10T11:45:51.452Z,73.58
2019-05-10T11:50:56.841Z,75.85
2019-05-10T11:56:07.894Z,77.19
2019-05-10T12:01:17.689Z,71.44
2019-05-10T12:06:17.938Z,69.10
2019-05-10T12:11:33.006Z,71.41
2019-05-10T12:16:33.416Z,72.18
2019-05-10T12:21:39.446Z,73.39
2019-05-10T12:27:13.169Z,77.25
2019-05-10T12:31:56.972Z,76.92
2019-05-10T12:37:08.073Z,77.85
2019-05-10T12:42:11.301Z,78.95
2019-05-10T12:47:21.392Z,78.53
2019-05-10T12:52:28.897Z,76.33
2019-05-10T12:57:35.625Z,70.59
2019-05-10T13:02:44.717Z,71.59
2019-05-10T13:07:49.595Z,73.37
2019-05-10T13:12:55.647Z,70.99
2019-05-10T13:18:02.145Z,70.84
2019-05-10T13:23:10.015Z,73.26
2019-05-10T13:28:15.974Z,70.87
2019-05-10T13:33:28.842Z,69.92
2019-05-10T13:38:29.825Z,69.69
2019-05-10T13:43:35.260Z,70.46
2019-05-10T13:48:42.009Z,70.82
2019-05-10T13:53:47.898Z,65.26
2019-05-10T13:58:55.157Z,66.49
2019-05-10T14:04:03.572Z,65.50
2019-05-10T14:09:09.472Z,65.74
2019-05-10T14:14:20.588Z,65.35
2019-05-10T14:19:27.048Z,65.05
2019-05-10T14:24:34.905Z,66.49
2019-05-10T14:29:40.298Z,68.72
2019-05-10T14:34:46.439Z,69.48
2019-05-10T14:39:52.051Z,73.62
2019-05-10T14:44:58.715Z,73.96
2019-05-10T14:50:04.099Z,74.04
2019-05-10T14:55:12.950Z,74.44
2019-05-10T15:00:18.619Z,74.54
2019-05-10T15:05:24.702Z,75.08
2019-05-10T15:10:33.158Z,75.85
2019-05-10T15:15:39.131Z,78.68
2019-05-10T15:20:45.582Z,81.32
2019-05-10T15:25:57.265Z,83.69
2019-05-10T15:30:58.750Z,85.22
2019-05-10T15:36:04.626Z,85.22
2019-05-10T15:41:10.234Z,86.17
2019-05-10T15:46:16.379Z,87.17
2019-05-10T15:51:35.191Z,88.04
2019-05-10T15:56:35.716Z,89.12
2019-05-10T16:01:40.836Z,89.39
2019-05-10T16:06:46.530Z,90.00
2019-05-10T16:12:02.444Z,89.84
2019-05-10T16:17:10.229Z,89.99
2019-05-10T16:22:13.862Z,89.89
2019-05-10T16:27:21.377Z,89.49
2019-05-10T16:32:29.250Z,88.47
2019-05-10T16:37:34.962Z,87.96
2019-05-10T16:42:40.810Z,87.26
2019-05-10T16:47:46.826Z,86.23
2019-05-10T16:52:58.968Z,85.63
2019-05-10T16:58:02.059Z,84.93
2019-05-10T17:03:13.012Z,84.72
2019-05-10T17:08:15.990Z,84.38
2019-05-10T17:13:22.259Z,83.99
2019-05-10T17:18:29.309Z,84.03
2019-05-10T17:23:35.204Z,84.25
2019-05-10T17:28:40.854Z,84.35
2019-05-10T17:33:49.329Z,85.36
2019-05-10T17:38:55.802Z,85.79
2019-05-10T17:44:01.177Z,86.42
2019-05-10T17:49:08.526Z,86.75
2019-05-10T17:54:14.344Z,87.38
2019-05-10T17:59:20.670Z,87.86
2019-05-10T18:04:26.555Z,88.20
2019-05-10T18:09:32.834Z,88.59
2019-05-10T18:14:39.138Z,88.61
2019-05-10T18:19:45.010Z,88.54
2019-05-10T18:24:50.436Z,88.49
2019-05-10T18:29:56.362Z,88.31
2019-05-10T18:35:13.612Z,88.03
2019-05-10T18:40:16.180Z,88.00
2019-05-10T18:45:23.320Z,87.45
2019-05-10T18:50:31.155Z,87.50
2019-05-10T18:55:36.668Z,87.11
2019-05-10T19:00:42.388Z,87.24
2019-05-10T19:05:51.417Z,87.17
2019-05-10T19:10:57.906Z,87.69
2019-05-10T19:16:04.239Z,86.98
2019-05-10T19:21:10.067Z,86.81
2019-05-10T19:26:17.540Z,87.42
2019-05-10T19:31:22.625Z,87.27
2019-05-10T19:36:28.203Z,88.49
2019-05-10T19:41:33.938Z,88.99
2019-05-10T19:46:40.750Z,89.60
2019-05-10T19:51:50.419Z,91.06
2019-05-10T19:56:55.449Z,92.68
2019-05-10T20:02:00.774Z,94.29
2019-05-10T20:07:06.266Z,95.19
2019-05-10T20:12:11.712Z,95.39
2019-05-10T20:17:17.458Z,95.94
2019-05-10T20:22:22.935Z,94.73
2019-05-10T20:27:28.386Z,93.78
2019-05-10T20:32:33.779Z,93.78
2019-05-10T20:37:39.314Z,93.15
2019-05-10T20:42:44.618Z,92.51
2019-05-10T20:47:50.004Z,92.13
2019-05-10T20:52:55.360Z,92.55
2019-05-10T20:58:00.818Z,92.10
2019-05-10T21:03:06.183Z,91.70
2019-05-10T21:08:16.809Z,91.46
2019-05-10T21:13:18.730Z,91.30
2019-05-10T21:18:24.128Z,91.58
2019-05-10T21:23:30.027Z,91.53
2019-05-10T21:28:35.370Z,92.22
2019-05-10T21:33:40.737Z,92.67
2019-05-10T21:38:46.165Z,92.60
2019-05-10T21:43:51.470Z,92.43
2019-05-10T21:48:56.975Z,92.13
2019-05-10T21:54:02.461Z,92.07
2019-05-10T21:59:07.850Z,91.96
2019-05-10T22:04:13.264Z,91.89
2019-05-10T22:09:18.587Z,92.10
2019-05-10T22:14:24.142Z,92.35
2019-05-10T22:19:30.555Z,92.76
2019-05-10T22:24:35.989Z,92.95
2019-05-10T22:29:41.385Z,93.08
2019-05-10T22:34:46.704Z,93.70
2019-05-10T22:39:51.929Z,94.56
2019-05-10T22:44:57.310Z,94.12
2019-05-10T22:50:02.685Z,94.99
2019-05-10T22:55:08.275Z,94.24
2019-05-10T23:00:14.266Z,93.78
2019-05-10T23:05:19.749Z,94.14
2019-05-10T23:10:25.165Z,93.70
2019-05-10T23:15:30.440Z,93.92
2019-05-10T23:20:35.781Z,93.57
2019-05-10T23:25:41.028Z,93.42
2019-05-10T23:30:46.434Z,93.76
2019-05-10T23:35:51.787Z,93.58
2019-05-10T23:40:57.084Z,93.40
2019-05-10T23:46:02.539Z,94.87
2019-05-10T23:51:07.935Z,95.74
2019-05-10T23:56:13.303Z,95.20
